Archival Weather

Norman Y Mineta San Jose Intl

San Jose, California (KSJC)

Report from: Wednesday, April 3, 2024 3:53 AM PDT
Current time: Tuesday, May 21, 2024 9:47 AM PDT

Current weather – Weather history – Daily summaries
Weather forecast

Temperature12.8°C (55.0°F)
Dew point8.9°C (48.0°F)
Winds 3 kts (1.5 m/s, 3.5 mph) East-Northeast (60°)
Visibility10 mi. (16.1 km)
Clouds Ceiling: Overcast 1,300 ft. (396 m)
Altimeter30.25 in.Hg (1024 mB)
Relative humidity77 %
Density altitude-468 ft. (-143 m)
Sea-level pressure102.4 kPa (1024 mB, 30.24 in.Hg)
Remarks Fully automated report
Automated weather observing station with precipitation discriminator
Flight conditions Marginal Visual Meteorological Conditions
Raw dataKSJC 031053Z AUTO 06003KT 10SM OVC013 13/09 A3025 RMK AO2 SLP242 T01280089
An error has occurred. This application may no longer respond until reloaded. Reload 🗙